sensor_id;sensor_type;location;lat;lon;timestamp;temperature;humidity
12578;DHT22;6354;51.026;8.968;2023-03-13T00:01:01;6.40;99.90
12578;DHT22;6354;51.026;8.968;2023-03-13T00:03:30;6.40;99.90
12578;DHT22;6354;51.026;8.968;2023-03-13T00:05:58;6.50;99.90
12578;DHT22;6354;51.026;8.968;2023-03-13T00:08:28;6.40;99.90
12578;DHT22;6354;51.026;8.968;2023-03-13T00:10:56;6.40;99.90
12578;DHT22;6354;51.026;8.968;2023-03-13T00:13:24;6.40;99.90
12578;DHT22;6354;51.026;8.968;2023-03-13T00:16:00;6.40;99.90
12578;DHT22;6354;51.026;8.968;2023-03-13T00:18:28;6.40;99.90
12578;DHT22;6354;51.026;8.968;2023-03-13T00:20:57;6.40;99.90
12578;DHT22;6354;51.026;8.968;2023-03-13T00:23:26;6.40;99.90
12578;DHT22;6354;51.026;8.968;2023-03-13T00:25:57;6.40;99.90
12578;DHT22;6354;51.026;8.968;2023-03-13T00:28:27;6.50;99.90
12578;DHT22;6354;51.026;8.968;2023-03-13T00:31:03;6.60;99.90
12578;DHT22;6354;51.026;8.968;2023-03-13T00:33:32;6.60;99.90
12578;DHT22;6354;51.026;8.968;2023-03-13T00:36:01;6.60;99.90
12578;DHT22;6354;51.026;8.968;2023-03-13T00:38:30;6.60;99.90
12578;DHT22;6354;51.026;8.968;2023-03-13T00:40:59;6.60;99.90
12578;DHT22;6354;51.026;8.968;2023-03-13T00:43:28;6.60;99.90
12578;DHT22;6354;51.026;8.968;2023-03-13T00:45:56;6.60;99.90
12578;DHT22;6354;51.026;8.968;2023-03-13T00:48:26;6.60;99.90
12578;DHT22;6354;51.026;8.968;2023-03-13T00:50:54;6.60;99.90
12578;DHT22;6354;51.026;8.968;2023-03-13T00:53:23;6.60;99.90
12578;DHT22;6354;51.026;8.968;2023-03-13T00:55:52;6.60;99.90
12578;DHT22;6354;51.026;8.968;2023-03-13T00:58:21;6.60;99.90
12578;DHT22;6354;51.026;8.968;2023-03-13T01:00:49;6.60;99.90
12578;DHT22;6354;51.026;8.968;2023-03-13T01:03:17;6.60;99.90
12578;DHT22;6354;51.026;8.968;2023-03-13T01:05:55;6.60;99.90
12578;DHT22;6354;51.026;8.968;2023-03-13T01:08:24;6.60;99.90
12578;DHT22;6354;51.026;8.968;2023-03-13T01:10:57;6.60;99.90
12578;DHT22;6354;51.026;8.968;2023-03-13T01:13:25;6.60;99.90
12578;DHT22;6354;51.026;8.968;2023-03-13T01:15:53;6.60;99.90
12578;DHT22;6354;51.026;8.968;2023-03-13T01:18:21;6.60;99.90
12578;DHT22;6354;51.026;8.968;2023-03-13T01:20:49;6.60;99.90
12578;DHT22;6354;51.026;8.968;2023-03-13T01:23:19;6.60;99.90
12578;DHT22;6354;51.026;8.968;2023-03-13T01:25:47;6.60;99.90
12578;DHT22;6354;51.026;8.968;2023-03-13T01:28:15;6.60;99.90
12578;DHT22;6354;51.026;8.968;2023-03-13T01:30:43;6.70;99.90
12578;DHT22;6354;51.026;8.968;2023-03-13T01:33:11;6.60;99.90
12578;DHT22;6354;51.026;8.968;2023-03-13T01:35:39;6.70;99.90
12578;DHT22;6354;51.026;8.968;2023-03-13T01:38:07;6.70;99.90
12578;DHT22;6354;51.026;8.968;2023-03-13T01:40:40;6.60;99.90
12578;DHT22;6354;51.026;8.968;2023-03-13T01:43:16;6.60;99.90
12578;DHT22;6354;51.026;8.968;2023-03-13T01:45:59;6.70;99.90
12578;DHT22;6354;51.026;8.968;2023-03-13T01:48:33;6.70;99.90
12578;DHT22;6354;51.026;8.968;2023-03-13T01:51:05;6.70;99.90
12578;DHT22;6354;51.026;8.968;2023-03-13T01:53:36;6.70;99.90
12578;DHT22;6354;51.026;8.968;2023-03-13T01:56:12;6.70;99.90
12578;DHT22;6354;51.026;8.968;2023-03-13T01:58:44;6.80;99.90
12578;DHT22;6354;51.026;8.968;2023-03-13T02:01:13;6.80;99.90
12578;DHT22;6354;51.026;8.968;2023-03-13T02:03:42;6.80;99.90
12578;DHT22;6354;51.026;8.968;2023-03-13T02:06:10;6.80;99.90
12578;DHT22;6354;51.026;8.968;2023-03-13T02:08:41;6.90;99.90
12578;DHT22;6354;51.026;8.968;2023-03-13T02:11:20;6.90;99.90
12578;DHT22;6354;51.026;8.968;2023-03-13T02:13:49;6.90;99.90
12578;DHT22;6354;51.026;8.968;2023-03-13T02:16:19;6.90;99.90
12578;DHT22;6354;51.026;8.968;2023-03-13T02:18:48;7.00;99.90
12578;DHT22;6354;51.026;8.968;2023-03-13T02:21:25;7.00;99.90
12578;DHT22;6354;51.026;8.968;2023-03-13T02:24:01;7.00;99.90
12578;DHT22;6354;51.026;8.968;2023-03-13T02:26:34;7.00;99.90
12578;DHT22;6354;51.026;8.968;2023-03-13T02:29:02;7.00;99.90
12578;DHT22;6354;51.026;8.968;2023-03-13T02:31:30;7.00;99.90
12578;DHT22;6354;51.026;8.968;2023-03-13T02:34:00;7.00;99.90
12578;DHT22;6354;51.026;8.968;2023-03-13T02:36:29;7.00;99.90
12578;DHT22;6354;51.026;8.968;2023-03-13T02:38:59;7.00;99.90
12578;DHT22;6354;51.026;8.968;2023-03-13T02:41:29;7.00;99.90
12578;DHT22;6354;51.026;8.968;2023-03-13T02:43:59;7.00;99.90
12578;DHT22;6354;51.026;8.968;2023-03-13T02:46:27;7.10;99.90
12578;DHT22;6354;51.026;8.968;2023-03-13T02:48:55;7.10;99.90
12578;DHT22;6354;51.026;8.968;2023-03-13T02:51:27;7.00;99.90
12578;DHT22;6354;51.026;8.968;2023-03-13T02:53:58;7.00;99.90
12578;DHT22;6354;51.026;8.968;2023-03-13T02:56:28;7.00;99.90
12578;DHT22;6354;51.026;8.968;2023-03-13T02:58:59;7.00;99.90
12578;DHT22;6354;51.026;8.968;2023-03-13T03:01:27;7.00;99.90
12578;DHT22;6354;51.026;8.968;2023-03-13T03:03:55;7.00;99.90
12578;DHT22;6354;51.026;8.968;2023-03-13T03:06:23;7.00;99.90
12578;DHT22;6354;51.026;8.968;2023-03-13T03:08:51;7.00;99.90
12578;DHT22;6354;51.026;8.968;2023-03-13T03:11:19;7.00;99.90
12578;DHT22;6354;51.026;8.968;2023-03-13T03:13:47;7.00;99.90
12578;DHT22;6354;51.026;8.968;2023-03-13T03:16:17;7.00;99.90
12578;DHT22;6354;51.026;8.968;2023-03-13T03:18:45;7.00;99.90
12578;DHT22;6354;51.026;8.968;2023-03-13T03:21:13;7.00;99.90
12578;DHT22;6354;51.026;8.968;2023-03-13T03:23:41;7.00;99.90
12578;DHT22;6354;51.026;8.968;2023-03-13T03:26:09;7.00;99.90
12578;DHT22;6354;51.026;8.968;2023-03-13T03:28:37;7.00;99.90
12578;DHT22;6354;51.026;8.968;2023-03-13T03:31:06;7.00;99.90
12578;DHT22;6354;51.026;8.968;2023-03-13T03:33:36;7.00;99.90
12578;DHT22;6354;51.026;8.968;2023-03-13T03:36:06;7.00;99.90
12578;DHT22;6354;51.026;8.968;2023-03-13T03:38:34;7.00;99.90
12578;DHT22;6354;51.026;8.968;2023-03-13T03:41:03;7.10;99.90
12578;DHT22;6354;51.026;8.968;2023-03-13T03:43:31;7.00;99.90
12578;DHT22;6354;51.026;8.968;2023-03-13T03:45:59;7.10;99.90
12578;DHT22;6354;51.026;8.968;2023-03-13T03:48:28;7.10;99.90
12578;DHT22;6354;51.026;8.968;2023-03-13T03:50:57;7.10;99.90
12578;DHT22;6354;51.026;8.968;2023-03-13T03:53:26;7.10;99.90
12578;DHT22;6354;51.026;8.968;2023-03-13T03:55:54;7.10;99.90
12578;DHT22;6354;51.026;8.968;2023-03-13T03:58:22;7.20;99.90
12578;DHT22;6354;51.026;8.968;2023-03-13T04:00:50;7.10;99.90
12578;DHT22;6354;51.026;8.968;2023-03-13T04:03:18;7.20;99.90
12578;DHT22;6354;51.026;8.968;2023-03-13T04:05:46;7.20;99.90
12578;DHT22;6354;51.026;8.968;2023-03-13T04:08:16;7.20;99.90
12578;DHT22;6354;51.026;8.968;2023-03-13T04:10:44;7.20;99.90
12578;DHT22;6354;51.026;8.968;2023-03-13T04:13:12;7.20;99.90
12578;DHT22;6354;51.026;8.968;2023-03-13T04:15:41;7.20;99.90
12578;DHT22;6354;51.026;8.968;2023-03-13T04:18:09;7.30;99.90
12578;DHT22;6354;51.026;8.968;2023-03-13T04:20:37;7.30;99.90
12578;DHT22;6354;51.026;8.968;2023-03-13T04:23:05;7.30;99.90
12578;DHT22;6354;51.026;8.968;2023-03-13T04:25:34;7.40;99.90
12578;DHT22;6354;51.026;8.968;2023-03-13T04:28:03;7.40;99.90
12578;DHT22;6354;51.026;8.968;2023-03-13T04:30:31;7.40;99.90
12578;DHT22;6354;51.026;8.968;2023-03-13T04:32:59;7.40;99.90
12578;DHT22;6354;51.026;8.968;2023-03-13T04:35:27;7.40;99.90
12578;DHT22;6354;51.026;8.968;2023-03-13T04:37:55;7.40;99.90
12578;DHT22;6354;51.026;8.968;2023-03-13T04:40:23;7.40;99.90
12578;DHT22;6354;51.026;8.968;2023-03-13T04:42:52;7.40;99.90
12578;DHT22;6354;51.026;8.968;2023-03-13T04:45:20;7.50;99.90
12578;DHT22;6354;51.026;8.968;2023-03-13T04:47:48;7.50;99.90
12578;DHT22;6354;51.026;8.968;2023-03-13T04:50:16;7.50;99.90
12578;DHT22;6354;51.026;8.968;2023-03-13T04:52:44;7.50;99.90
12578;DHT22;6354;51.026;8.968;2023-03-13T04:55:15;7.60;99.90
12578;DHT22;6354;51.026;8.968;2023-03-13T04:57:43;7.60;99.90
12578;DHT22;6354;51.026;8.968;2023-03-13T05:00:13;7.60;99.90
12578;DHT22;6354;51.026;8.968;2023-03-13T05:02:41;7.70;99.90
12578;DHT22;6354;51.026;8.968;2023-03-13T05:05:09;7.70;99.90
12578;DHT22;6354;51.026;8.968;2023-03-13T05:07:37;7.80;99.90
12578;DHT22;6354;51.026;8.968;2023-03-13T05:10:06;7.80;99.90
12578;DHT22;6354;51.026;8.968;2023-03-13T05:12:34;7.80;99.90
12578;DHT22;6354;51.026;8.968;2023-03-13T05:15:02;7.80;99.90
12578;DHT22;6354;51.026;8.968;2023-03-13T05:17:32;7.90;99.90
12578;DHT22;6354;51.026;8.968;2023-03-13T05:20:00;7.90;99.90
12578;DHT22;6354;51.026;8.968;2023-03-13T05:22:28;7.90;99.90
12578;DHT22;6354;51.026;8.968;2023-03-13T05:24:56;7.90;99.90
12578;DHT22;6354;51.026;8.968;2023-03-13T05:27:24;8.00;99.90
12578;DHT22;6354;51.026;8.968;2023-03-13T05:29:52;8.00;99.90
12578;DHT22;6354;51.026;8.968;2023-03-13T05:32:20;7.90;99.90
12578;DHT22;6354;51.026;8.968;2023-03-13T05:34:49;8.00;99.90
12578;DHT22;6354;51.026;8.968;2023-03-13T05:37:17;8.00;99.90
12578;DHT22;6354;51.026;8.968;2023-03-13T05:39:45;8.00;99.90
12578;DHT22;6354;51.026;8.968;2023-03-13T05:42:13;8.00;99.90
12578;DHT22;6354;51.026;8.968;2023-03-13T05:44:41;8.00;99.90
12578;DHT22;6354;51.026;8.968;2023-03-13T05:47:10;8.10;99.90
12578;DHT22;6354;51.026;8.968;2023-03-13T05:49:38;8.10;99.90
12578;DHT22;6354;51.026;8.968;2023-03-13T05:52:07;8.10;99.90
12578;DHT22;6354;51.026;8.968;2023-03-13T05:54:35;8.10;99.90
12578;DHT22;6354;51.026;8.968;2023-03-13T05:57:04;8.10;99.90
12578;DHT22;6354;51.026;8.968;2023-03-13T05:59:32;8.20;99.90
12578;DHT22;6354;51.026;8.968;2023-03-13T06:02:00;8.10;99.90
12578;DHT22;6354;51.026;8.968;2023-03-13T06:04:28;8.20;99.90
12578;DHT22;6354;51.026;8.968;2023-03-13T06:06:56;8.10;99.90
12578;DHT22;6354;51.026;8.968;2023-03-13T06:09:25;8.20;99.90
12578;DHT22;6354;51.026;8.968;2023-03-13T06:11:54;8.20;99.90
12578;DHT22;6354;51.026;8.968;2023-03-13T06:14:22;8.30;99.90
12578;DHT22;6354;51.026;8.968;2023-03-13T06:16:50;8.30;99.90
12578;DHT22;6354;51.026;8.968;2023-03-13T06:19:18;8.30;99.90
12578;DHT22;6354;51.026;8.968;2023-03-13T06:21:46;8.20;99.90
12578;DHT22;6354;51.026;8.968;2023-03-13T06:24:14;8.30;99.90
12578;DHT22;6354;51.026;8.968;2023-03-13T06:26:43;8.30;99.90
12578;DHT22;6354;51.026;8.968;2023-03-13T06:29:11;8.30;99.90
12578;DHT22;6354;51.026;8.968;2023-03-13T06:31:39;8.40;99.90
12578;DHT22;6354;51.026;8.968;2023-03-13T06:34:08;8.30;99.90
12578;DHT22;6354;51.026;8.968;2023-03-13T06:36:37;8.40;99.90
12578;DHT22;6354;51.026;8.968;2023-03-13T06:39:05;8.40;99.90
12578;DHT22;6354;51.026;8.968;2023-03-13T06:41:34;8.30;99.90
12578;DHT22;6354;51.026;8.968;2023-03-13T06:44:03;8.40;99.90
12578;DHT22;6354;51.026;8.968;2023-03-13T06:46:31;8.40;99.90
12578;DHT22;6354;51.026;8.968;2023-03-13T06:49:00;8.40;99.90
12578;DHT22;6354;51.026;8.968;2023-03-13T06:51:31;8.40;99.90
12578;DHT22;6354;51.026;8.968;2023-03-13T06:54:00;8.50;99.90
12578;DHT22;6354;51.026;8.968;2023-03-13T06:56:28;8.50;99.90
12578;DHT22;6354;51.026;8.968;2023-03-13T06:58:56;8.50;99.90
12578;DHT22;6354;51.026;8.968;2023-03-13T07:01:27;8.50;99.90
12578;DHT22;6354;51.026;8.968;2023-03-13T07:03:55;8.60;99.90
12578;DHT22;6354;51.026;8.968;2023-03-13T07:06:23;8.60;99.90
12578;DHT22;6354;51.026;8.968;2023-03-13T07:08:52;8.60;99.90
12578;DHT22;6354;51.026;8.968;2023-03-13T07:11:20;8.70;99.90
12578;DHT22;6354;51.026;8.968;2023-03-13T07:13:48;8.70;99.90
12578;DHT22;6354;51.026;8.968;2023-03-13T07:16:16;8.70;99.90
12578;DHT22;6354;51.026;8.968;2023-03-13T07:18:46;8.70;99.90
12578;DHT22;6354;51.026;8.968;2023-03-13T07:21:14;8.70;99.90
12578;DHT22;6354;51.026;8.968;2023-03-13T07:23:42;8.80;99.90
12578;DHT22;6354;51.026;8.968;2023-03-13T07:26:11;8.90;99.90
12578;DHT22;6354;51.026;8.968;2023-03-13T07:28:40;8.90;99.90
12578;DHT22;6354;51.026;8.968;2023-03-13T07:31:11;8.80;99.90
12578;DHT22;6354;51.026;8.968;2023-03-13T07:33:40;8.90;99.90
12578;DHT22;6354;51.026;8.968;2023-03-13T07:36:10;8.90;99.90
12578;DHT22;6354;51.026;8.968;2023-03-13T07:38:39;8.90;99.90
12578;DHT22;6354;51.026;8.968;2023-03-13T07:41:10;9.00;99.90
12578;DHT22;6354;51.026;8.968;2023-03-13T07:43:39;8.90;99.90
12578;DHT22;6354;51.026;8.968;2023-03-13T07:46:10;8.90;99.90
12578;DHT22;6354;51.026;8.968;2023-03-13T07:48:41;9.00;99.90
12578;DHT22;6354;51.026;8.968;2023-03-13T07:51:13;9.00;99.90
12578;DHT22;6354;51.026;8.968;2023-03-13T07:53:42;9.00;99.90
12578;DHT22;6354;51.026;8.968;2023-03-13T07:56:11;9.10;99.90
12578;DHT22;6354;51.026;8.968;2023-03-13T07:58:40;9.10;99.90
12578;DHT22;6354;51.026;8.968;2023-03-13T08:01:09;9.10;99.90
12578;DHT22;6354;51.026;8.968;2023-03-13T08:03:38;9.10;99.90
12578;DHT22;6354;51.026;8.968;2023-03-13T08:06:08;9.20;99.90
12578;DHT22;6354;51.026;8.968;2023-03-13T08:08:38;9.10;99.90
12578;DHT22;6354;51.026;8.968;2023-03-13T08:11:09;9.20;99.90
12578;DHT22;6354;51.026;8.968;2023-03-13T08:13:37;9.20;99.90
12578;DHT22;6354;51.026;8.968;2023-03-13T08:16:08;9.30;99.90
12578;DHT22;6354;51.026;8.968;2023-03-13T08:18:39;9.30;99.90
12578;DHT22;6354;51.026;8.968;2023-03-13T08:21:11;9.30;99.90
12578;DHT22;6354;51.026;8.968;2023-03-13T08:23:41;9.40;99.90
12578;DHT22;6354;51.026;8.968;2023-03-13T08:26:11;9.40;99.90
12578;DHT22;6354;51.026;8.968;2023-03-13T08:28:40;9.40;99.90
12578;DHT22;6354;51.026;8.968;2023-03-13T08:31:10;9.50;99.90
12578;DHT22;6354;51.026;8.968;2023-03-13T08:33:39;9.60;99.90
12578;DHT22;6354;51.026;8.968;2023-03-13T08:36:11;9.60;99.90
12578;DHT22;6354;51.026;8.968;2023-03-13T08:38:42;9.70;99.90
12578;DHT22;6354;51.026;8.968;2023-03-13T08:41:13;9.70;99.90
12578;DHT22;6354;51.026;8.968;2023-03-13T08:43:41;9.80;99.90
12578;DHT22;6354;51.026;8.968;2023-03-13T08:46:10;9.90;99.90
12578;DHT22;6354;51.026;8.968;2023-03-13T08:48:38;10.00;99.90
12578;DHT22;6354;51.026;8.968;2023-03-13T08:51:08;10.00;99.90
12578;DHT22;6354;51.026;8.968;2023-03-13T08:53:37;10.10;99.90
12578;DHT22;6354;51.026;8.968;2023-03-13T08:56:07;10.20;99.90
12578;DHT22;6354;51.026;8.968;2023-03-13T08:58:36;10.30;99.90
12578;DHT22;6354;51.026;8.968;2023-03-13T09:01:07;10.40;99.90
12578;DHT22;6354;51.026;8.968;2023-03-13T09:03:35;10.50;99.90
12578;DHT22;6354;51.026;8.968;2023-03-13T09:06:04;10.50;99.90
12578;DHT22;6354;51.026;8.968;2023-03-13T09:08:33;10.60;99.90
12578;DHT22;6354;51.026;8.968;2023-03-13T09:11:03;10.70;99.90
12578;DHT22;6354;51.026;8.968;2023-03-13T09:13:35;10.90;99.90
12578;DHT22;6354;51.026;8.968;2023-03-13T09:16:06;11.00;99.90
12578;DHT22;6354;51.026;8.968;2023-03-13T09:18:34;11.20;99.90
12578;DHT22;6354;51.026;8.968;2023-03-13T09:21:06;11.30;99.90
12578;DHT22;6354;51.026;8.968;2023-03-13T09:23:35;11.30;99.90
12578;DHT22;6354;51.026;8.968;2023-03-13T09:26:04;11.30;99.90
12578;DHT22;6354;51.026;8.968;2023-03-13T09:28:34;11.30;99.90
12578;DHT22;6354;51.026;8.968;2023-03-13T09:31:06;11.30;99.90
12578;DHT22;6354;51.026;8.968;2023-03-13T09:33:35;11.40;99.90
12578;DHT22;6354;51.026;8.968;2023-03-13T09:36:04;11.40;99.90
12578;DHT22;6354;51.026;8.968;2023-03-13T09:38:32;11.40;99.90
12578;DHT22;6354;51.026;8.968;2023-03-13T09:41:04;11.40;99.90
12578;DHT22;6354;51.026;8.968;2023-03-13T09:43:45;11.40;99.90
12578;DHT22;6354;51.026;8.968;2023-03-13T09:46:19;11.50;99.90
12578;DHT22;6354;51.026;8.968;2023-03-13T09:48:51;11.50;99.90
12578;DHT22;6354;51.026;8.968;2023-03-13T09:51:25;11.60;99.90
12578;DHT22;6354;51.026;8.968;2023-03-13T09:53:58;11.60;99.90
12578;DHT22;6354;51.026;8.968;2023-03-13T09:56:30;11.70;99.90
12578;DHT22;6354;51.026;8.968;2023-03-13T09:59:08;11.70;99.90
12578;DHT22;6354;51.026;8.968;2023-03-13T10:01:40;11.70;99.90
12578;DHT22;6354;51.026;8.968;2023-03-13T10:04:20;11.80;99.90
12578;DHT22;6354;51.026;8.968;2023-03-13T10:06:52;11.90;99.90
12578;DHT22;6354;51.026;8.968;2023-03-13T10:09:25;12.00;99.90
12578;DHT22;6354;51.026;8.968;2023-03-13T10:12:00;12.00;99.90
12578;DHT22;6354;51.026;8.968;2023-03-13T10:14:38;12.10;99.90
12578;DHT22;6354;51.026;8.968;2023-03-13T10:17:14;12.10;99.90
12578;DHT22;6354;51.026;8.968;2023-03-13T10:19:53;12.10;99.90
12578;DHT22;6354;51.026;8.968;2023-03-13T10:22:25;12.10;99.90
12578;DHT22;6354;51.026;8.968;2023-03-13T10:24:55;12.10;99.90
12578;DHT22;6354;51.026;8.968;2023-03-13T10:27:25;12.10;99.90
12578;DHT22;6354;51.026;8.968;2023-03-13T10:29:54;12.10;99.90
12578;DHT22;6354;51.026;8.968;2023-03-13T10:32:22;12.10;99.90
12578;DHT22;6354;51.026;8.968;2023-03-13T10:34:56;12.20;99.90
12578;DHT22;6354;51.026;8.968;2023-03-13T10:37:28;12.20;99.90
12578;DHT22;6354;51.026;8.968;2023-03-13T10:40:11;12.20;99.90
12578;DHT22;6354;51.026;8.968;2023-03-13T10:42:43;12.20;99.90
12578;DHT22;6354;51.026;8.968;2023-03-13T10:45:16;12.30;99.90
12578;DHT22;6354;51.026;8.968;2023-03-13T10:47:53;12.20;99.90
12578;DHT22;6354;51.026;8.968;2023-03-13T10:50:24;12.30;99.90
12578;DHT22;6354;51.026;8.968;2023-03-13T10:52:52;12.40;99.90
12578;DHT22;6354;51.026;8.968;2023-03-13T10:55:23;12.50;99.90
12578;DHT22;6354;51.026;8.968;2023-03-13T10:57:56;12.70;99.90
12578;DHT22;6354;51.026;8.968;2023-03-13T11:00:33;12.80;99.90
12578;DHT22;6354;51.026;8.968;2023-03-13T11:03:05;12.80;99.90
12578;DHT22;6354;51.026;8.968;2023-03-13T11:05:39;13.00;99.90
12578;DHT22;6354;51.026;8.968;2023-03-13T11:08:11;13.00;99.90
12578;DHT22;6354;51.026;8.968;2023-03-13T11:10:55;13.00;99.90
12578;DHT22;6354;51.026;8.968;2023-03-13T11:13:35;12.90;99.90
12578;DHT22;6354;51.026;8.968;2023-03-13T11:16:17;12.90;99.90
12578;DHT22;6354;51.026;8.968;2023-03-13T11:19:23;12.80;99.90
12578;DHT22;6354;51.026;8.968;2023-03-13T11:22:06;12.80;99.90
12578;DHT22;6354;51.026;8.968;2023-03-13T11:24:43;12.90;99.90
12578;DHT22;6354;51.026;8.968;2023-03-13T11:27:18;12.90;99.90
12578;DHT22;6354;51.026;8.968;2023-03-13T11:30:00;12.90;99.90
12578;DHT22;6354;51.026;8.968;2023-03-13T11:32:40;12.90;99.90
12578;DHT22;6354;51.026;8.968;2023-03-13T11:35:19;12.90;99.90
12578;DHT22;6354;51.026;8.968;2023-03-13T11:37:50;13.00;99.90
12578;DHT22;6354;51.026;8.968;2023-03-13T11:40:24;13.30;99.90
12578;DHT22;6354;51.026;8.968;2023-03-13T11:43:20;13.40;99.90
12578;DHT22;6354;51.026;8.968;2023-03-13T11:46:10;13.50;99.90
12578;DHT22;6354;51.026;8.968;2023-03-13T11:51:58;13.60;99.90
12578;DHT22;6354;51.026;8.968;2023-03-13T11:54:57;13.70;99.90
12578;DHT22;6354;51.026;8.968;2023-03-13T11:57:28;13.70;99.90
12578;DHT22;6354;51.026;8.968;2023-03-13T12:00:13;13.70;99.90
12578;DHT22;6354;51.026;8.968;2023-03-13T12:02:46;13.60;99.90
12578;DHT22;6354;51.026;8.968;2023-03-13T12:05:18;13.60;99.90
12578;DHT22;6354;51.026;8.968;2023-03-13T12:07:52;13.40;99.90
12578;DHT22;6354;51.026;8.968;2023-03-13T12:10:25;13.50;99.90
12578;DHT22;6354;51.026;8.968;2023-03-13T12:12:59;13.40;99.90
12578;DHT22;6354;51.026;8.968;2023-03-13T12:15:31;13.30;99.90
12578;DHT22;6354;51.026;8.968;2023-03-13T12:18:04;13.30;99.90
12578;DHT22;6354;51.026;8.968;2023-03-13T12:20:40;13.30;99.90
12578;DHT22;6354;51.026;8.968;2023-03-13T12:23:17;13.30;99.90
12578;DHT22;6354;51.026;8.968;2023-03-13T12:25:50;13.20;99.90
12578;DHT22;6354;51.026;8.968;2023-03-13T12:28:28;13.10;99.90
12578;DHT22;6354;51.026;8.968;2023-03-13T12:31:03;13.00;99.90
12578;DHT22;6354;51.026;8.968;2023-03-13T12:33:36;13.10;99.90
12578;DHT22;6354;51.026;8.968;2023-03-13T12:36:09;13.00;99.90
12578;DHT22;6354;51.026;8.968;2023-03-13T12:38:45;13.00;99.90
12578;DHT22;6354;51.026;8.968;2023-03-13T12:41:18;12.90;99.90
12578;DHT22;6354;51.026;8.968;2023-03-13T12:43:51;12.90;99.90
12578;DHT22;6354;51.026;8.968;2023-03-13T12:46:36;12.90;99.90
12578;DHT22;6354;51.026;8.968;2023-03-13T12:52:22;12.90;99.90
12578;DHT22;6354;51.026;8.968;2023-03-13T12:55:06;13.00;99.90
12578;DHT22;6354;51.026;8.968;2023-03-13T13:00:50;12.90;99.90
12578;DHT22;6354;51.026;8.968;2023-03-13T13:03:28;12.80;99.90
12578;DHT22;6354;51.026;8.968;2023-03-13T13:06:04;12.80;99.90
12578;DHT22;6354;51.026;8.968;2023-03-13T13:08:36;12.80;99.90
12578;DHT22;6354;51.026;8.968;2023-03-13T13:15:00;12.80;99.90
12578;DHT22;6354;51.026;8.968;2023-03-13T13:20:30;12.80;99.90
12578;DHT22;6354;51.026;8.968;2023-03-13T13:32:39;12.70;99.90
12578;DHT22;6354;51.026;8.968;2023-03-13T13:35:25;12.70;99.90
12578;DHT22;6354;51.026;8.968;2023-03-13T13:38:28;12.70;99.90
12578;DHT22;6354;51.026;8.968;2023-03-13T13:41:19;12.80;99.90
12578;DHT22;6354;51.026;8.968;2023-03-13T13:44:27;12.80;99.90
12578;DHT22;6354;51.026;8.968;2023-03-13T13:46:57;12.70;99.90
12578;DHT22;6354;51.026;8.968;2023-03-13T13:49:53;12.70;99.90
12578;DHT22;6354;51.026;8.968;2023-03-13T13:52:36;12.60;99.90
12578;DHT22;6354;51.026;8.968;2023-03-13T13:55:31;12.60;99.90
12578;DHT22;6354;51.026;8.968;2023-03-13T13:58:02;12.50;99.90
12578;DHT22;6354;51.026;8.968;2023-03-13T14:00:37;12.50;99.90
12578;DHT22;6354;51.026;8.968;2023-03-13T14:03:19;12.50;99.90
12578;DHT22;6354;51.026;8.968;2023-03-13T14:05:51;12.50;99.90
12578;DHT22;6354;51.026;8.968;2023-03-13T14:08:24;12.40;99.90
12578;DHT22;6354;51.026;8.968;2023-03-13T14:11:02;12.40;99.90
12578;DHT22;6354;51.026;8.968;2023-03-13T14:13:31;12.50;99.90
12578;DHT22;6354;51.026;8.968;2023-03-13T14:16:18;12.50;99.90
12578;DHT22;6354;51.026;8.968;2023-03-13T14:18:50;12.50;99.90
12578;DHT22;6354;51.026;8.968;2023-03-13T14:21:22;12.50;99.90
12578;DHT22;6354;51.026;8.968;2023-03-13T14:23:51;12.40;99.90
12578;DHT22;6354;51.026;8.968;2023-03-13T14:26:22;12.50;99.90
12578;DHT22;6354;51.026;8.968;2023-03-13T14:28:53;12.50;99.90
12578;DHT22;6354;51.026;8.968;2023-03-13T14:31:24;12.50;99.90
12578;DHT22;6354;51.026;8.968;2023-03-13T14:33:53;12.60;99.90
12578;DHT22;6354;51.026;8.968;2023-03-13T14:36:23;12.60;99.90
12578;DHT22;6354;51.026;8.968;2023-03-13T14:38:53;12.60;99.90
12578;DHT22;6354;51.026;8.968;2023-03-13T14:41:30;12.60;99.90
12578;DHT22;6354;51.026;8.968;2023-03-13T14:44:04;12.60;99.90
12578;DHT22;6354;51.026;8.968;2023-03-13T14:46:34;12.60;99.90
12578;DHT22;6354;51.026;8.968;2023-03-13T14:49:08;12.70;99.90
12578;DHT22;6354;51.026;8.968;2023-03-13T14:51:41;12.80;99.90
12578;DHT22;6354;51.026;8.968;2023-03-13T14:54:24;12.70;99.90
12578;DHT22;6354;51.026;8.968;2023-03-13T14:57:05;12.80;99.90
12578;DHT22;6354;51.026;8.968;2023-03-13T14:59:39;12.70;99.90
12578;DHT22;6354;51.026;8.968;2023-03-13T15:02:19;12.70;99.90
12578;DHT22;6354;51.026;8.968;2023-03-13T15:04:49;12.60;99.90
12578;DHT22;6354;51.026;8.968;2023-03-13T15:07:19;12.70;99.90
12578;DHT22;6354;51.026;8.968;2023-03-13T15:09:48;12.70;99.90
12578;DHT22;6354;51.026;8.968;2023-03-13T15:12:19;12.70;99.90
12578;DHT22;6354;51.026;8.968;2023-03-13T15:14:49;12.70;99.90
12578;DHT22;6354;51.026;8.968;2023-03-13T15:17:19;12.70;99.90
12578;DHT22;6354;51.026;8.968;2023-03-13T15:19:49;12.70;99.90
12578;DHT22;6354;51.026;8.968;2023-03-13T15:22:23;12.80;99.90
12578;DHT22;6354;51.026;8.968;2023-03-13T15:24:51;12.80;99.90
12578;DHT22;6354;51.026;8.968;2023-03-13T15:27:32;12.80;99.90
12578;DHT22;6354;51.026;8.968;2023-03-13T15:30:00;12.90;99.90
12578;DHT22;6354;51.026;8.968;2023-03-13T15:32:30;12.80;99.90
12578;DHT22;6354;51.026;8.968;2023-03-13T15:34:59;12.90;99.90
12578;DHT22;6354;51.026;8.968;2023-03-13T15:37:30;12.90;99.90
12578;DHT22;6354;51.026;8.968;2023-03-13T15:39:58;12.80;99.90
12578;DHT22;6354;51.026;8.968;2023-03-13T15:42:26;12.80;99.90
12578;DHT22;6354;51.026;8.968;2023-03-13T15:44:54;12.80;99.90
12578;DHT22;6354;51.026;8.968;2023-03-13T15:47:22;12.80;99.90
12578;DHT22;6354;51.026;8.968;2023-03-13T15:49:50;12.80;99.90
12578;DHT22;6354;51.026;8.968;2023-03-13T15:52:19;12.80;99.90
12578;DHT22;6354;51.026;8.968;2023-03-13T15:54:50;12.80;99.90
12578;DHT22;6354;51.026;8.968;2023-03-13T15:57:21;12.90;99.90
12578;DHT22;6354;51.026;8.968;2023-03-13T15:59:49;12.90;99.90
12578;DHT22;6354;51.026;8.968;2023-03-13T16:02:19;13.00;99.90
12578;DHT22;6354;51.026;8.968;2023-03-13T16:04:48;13.00;99.90
12578;DHT22;6354;51.026;8.968;2023-03-13T16:07:18;12.90;99.90
12578;DHT22;6354;51.026;8.968;2023-03-13T16:09:47;12.90;99.90
12578;DHT22;6354;51.026;8.968;2023-03-13T16:12:16;12.90;99.90
12578;DHT22;6354;51.026;8.968;2023-03-13T16:14:44;12.90;99.90
12578;DHT22;6354;51.026;8.968;2023-03-13T16:17:15;12.90;99.90
12578;DHT22;6354;51.026;8.968;2023-03-13T16:19:44;12.90;99.90
12578;DHT22;6354;51.026;8.968;2023-03-13T16:22:13;13.00;99.90
12578;DHT22;6354;51.026;8.968;2023-03-13T16:24:41;13.10;99.90
12578;DHT22;6354;51.026;8.968;2023-03-13T16:27:13;13.00;99.90
12578;DHT22;6354;51.026;8.968;2023-03-13T16:29:43;13.00;99.90
12578;DHT22;6354;51.026;8.968;2023-03-13T16:32:12;13.00;99.90
12578;DHT22;6354;51.026;8.968;2023-03-13T16:34:41;12.90;99.90
12578;DHT22;6354;51.026;8.968;2023-03-13T16:37:11;12.80;99.90
12578;DHT22;6354;51.026;8.968;2023-03-13T16:39:39;12.80;99.90
12578;DHT22;6354;51.026;8.968;2023-03-13T16:42:08;12.80;99.90
12578;DHT22;6354;51.026;8.968;2023-03-13T16:44:37;12.80;99.90
12578;DHT22;6354;51.026;8.968;2023-03-13T16:47:16;12.70;99.90